KEF weather

Keflavik International Airport
Reykjavík, Southern Peninsula, Iceland

Public forecast

Using degrees Celsius for public forecast. Weather courtesy of forecast.io.

Current aviation weather report (METAR) for Keflavik International Airport

Retrieved 2019/10/15 08:30 UTC (0 seconds ago):

BIKF 150830Z 09018G28KT 9999 BKN025 09/05 Q0989

Aviation forecast (TAF) for Keflavik International Airport

Retrieved 2019/10/15 09:48 UTC (0 seconds ago):

TAF BIKF 150741Z 1509/1609 11030G42KT 9999 -RA BKN020 OVC025 TX10/1512Z TN08/1520Z BECMG 1509/1512 09022G32KT BECMG 1521/1523 07015KT